createdAt,value
2022-11-02T07:02:47.107Z,13.82
2022-11-02T07:05:13.777Z,14.57
2022-11-02T07:09:57.465Z,13.85
2022-11-02T07:12:25.790Z,14.25
2022-11-02T07:14:53.605Z,15.15
2022-11-02T07:19:39.486Z,14.30
2022-11-02T07:22:38.314Z,13.32
2022-11-02T07:25:07.086Z,14.20
2022-11-02T07:27:40.937Z,13.43
2022-11-02T07:30:09.252Z,13.52
2022-11-02T07:32:44.886Z,13.50
2022-11-02T07:35:14.954Z,13.68
2022-11-02T07:41:13.655Z,13.65
2022-11-02T07:43:43.173Z,13.88
2022-11-02T07:46:26.275Z,13.35
2022-11-02T07:48:53.947Z,13.75
2022-11-02T07:51:21.975Z,12.80
2022-11-02T07:53:49.629Z,13.48
2022-11-02T07:56:17.116Z,13.60
2022-11-02T07:58:44.784Z,13.43
2022-11-02T08:01:12.319Z,13.55
2022-11-02T08:03:40.535Z,12.65
2022-11-02T08:06:11.980Z,12.80
2022-11-02T08:08:39.590Z,12.93
2022-11-02T08:11:09.264Z,12.88
2022-11-02T08:13:38.195Z,12.63
2022-11-02T08:16:05.998Z,12.40
2022-11-02T08:18:36.613Z,12.20
2022-11-02T08:21:04.639Z,12.27
2022-11-02T08:23:32.284Z,12.95
2022-11-02T08:26:00.578Z,13.25
2022-11-02T08:28:36.775Z,12.63
2022-11-02T08:31:04.970Z,11.73
2022-11-02T08:33:32.443Z,12.52
2022-11-02T08:36:04.769Z,12.18
2022-11-02T08:38:32.719Z,11.98
2022-11-02T08:41:00.811Z,12.73
2022-11-02T08:43:28.679Z,12.43
2022-11-02T08:46:16.391Z,11.40
2022-11-02T08:48:45.219Z,12.30
2022-11-02T08:51:12.800Z,12.32
2022-11-02T08:53:40.467Z,12.63
2022-11-02T08:56:08.522Z,11.55
2022-11-02T08:58:36.079Z,11.70
2022-11-02T09:01:03.839Z,11.68
2022-11-02T09:03:32.379Z,12.25
2022-11-02T09:06:01.609Z,11.57
2022-11-02T09:08:30.127Z,11.32
2022-11-02T09:11:00.558Z,11.45
2022-11-02T09:13:28.723Z,11.93
2022-11-02T09:15:58.651Z,11.73
2022-11-02T09:18:37.391Z,12.05
2022-11-02T09:21:05.747Z,11.40
2022-11-02T09:23:33.687Z,11.85
2022-11-02T09:26:01.453Z,11.82
2022-11-02T09:28:34.886Z,11.15
2022-11-02T09:31:07.290Z,11.15
2022-11-02T09:35:02.179Z,10.88
2022-11-02T09:37:30.329Z,10.95
2022-11-02T09:39:57.953Z,10.82
2022-11-02T09:42:55.020Z,11.13
2022-11-02T09:45:23.133Z,10.33
2022-11-02T09:50:51.544Z,10.95
2022-11-02T09:53:27.768Z,11.20
2022-11-02T09:56:00.097Z,10.88
2022-11-02T09:58:34.563Z,10.40
2022-11-02T10:01:12.156Z,10.88
2022-11-02T10:03:39.937Z,10.50
2022-11-02T10:06:22.025Z,10.15
2022-11-02T10:09:05.913Z,10.73
2022-11-02T10:11:51.534Z,10.75
2022-11-02T10:14:27.594Z,10.35
2022-11-02T10:17:14.623Z,11.23
2022-11-02T10:19:48.560Z,10.23
2022-11-02T10:22:20.791Z,10.38
2022-11-02T10:24:51.043Z,10.50
2022-11-02T10:27:32.751Z,10.70
2022-11-02T10:30:13.468Z,10.57
2022-11-02T10:35:37.202Z,10.43
2022-11-02T10:38:25.783Z,10.32
2022-11-02T10:41:02.447Z,10.73
2022-11-02T10:43:52.114Z,10.73
2022-11-02T10:46:38.499Z,11.25
2022-11-02T10:49:10.729Z,10.93
2022-11-02T10:51:38.568Z,10.60
2022-11-02T10:54:12.852Z,11.27
2022-11-02T10:56:42.268Z,11.82
2022-11-02T10:59:17.315Z,11.32
2022-11-02T11:01:48.515Z,10.63
